Time;durP1;ratioP1;P1;durP2;ratioP2;P2;SDS_P1;SDS_P2;PMS_P1;PMS_P2;Temp;Humidity;BMP_temperature;BMP_pressure;BME280_temperature;BME280_humidity;BME280_pressure;Samples;Min_cycle;Max_cycle;Signal;HPM_P1;HPM_P2
2022/05/05 00:06:36;;;;;;;1999.90;999.90;;;;;;;17.19;58.21;101169.63;15699822;28;20067;-58
2022/05/05 00:14:27;;;;;;;1999.90;999.90;;;;;;;17.17;59.42;101163.56;15716257;28;20087;-60
2022/05/05 00:22:00;;;;;;;1999.90;999.90;;;;;;;17.02;58.94;101158.78;15711600;28;20084;-59
2022/05/05 00:29:33;;;;;;;1999.90;999.90;;;;;;;16.90;59.84;101172.97;15707790;28;20110;-60
2022/05/05 00:37:05;;;;;;;1999.90;999.90;;;;;;;16.81;59.52;101189.25;15713140;28;20040;-60
2022/05/05 00:44:39;;;;;;;1999.90;999.90;;;;;;;16.71;60.38;101184.97;15691218;28;20424;-60
2022/05/05 00:52:11;;;;;;;1999.90;999.90;;;;;;;16.48;62.82;101181.13;15723522;28;20068;-60
2022/05/05 00:59:45;;;;;;;1999.90;999.90;;;;;;;16.40;62.59;101172.47;15690136;28;20040;-60
2022/05/05 01:07:21;;;;;;;1999.90;999.90;;;;;;;16.33;63.06;101186.34;15701049;28;20494;-59
2022/05/05 01:14:55;;;;;;;1999.90;999.90;;;;;;;16.21;63.49;101194.06;15734812;28;20406;-61
2022/05/05 01:22:28;;;;;;;1999.90;999.90;;;;;;;16.07;63.49;101197.31;15699030;28;20147;-59
2022/05/05 01:30:01;;;;;;;1999.90;999.90;;;;;;;15.91;64.12;101211.31;15697384;28;20056;-59
2022/05/05 01:37:35;;;;;;;1999.90;999.90;;;;;;;16.06;63.47;101210.56;15690050;28;20595;-60
2022/05/05 01:45:08;;;;;;;263.38;237.30;;;;;;;15.96;64.10;101221.50;15692332;28;20041;-59
2022/05/05 01:52:42;;;;;;;676.42;408.42;;;;;;;15.74;66.05;101226.50;15708976;28;20091;-60
2022/05/05 02:00:15;;;;;;;358.95;324.58;;;;;;;15.80;65.05;101238.31;15693498;28;20049;-59
2022/05/05 02:07:49;;;;;;;348.38;315.33;;;;;;;15.75;65.82;101263.91;15705366;28;20408;-59
2022/05/05 02:15:21;;;;;;;307.40;282.10;;;;;;;15.58;66.74;101262.13;15685692;28;20130;-59
2022/05/05 02:22:57;;;;;;;318.25;290.83;;;;;;;15.64;66.76;101268.38;15702214;28;20117;-59
2022/05/05 02:30:30;;;;;;;330.48;302.25;;;;;;;15.53;67.52;101279.25;15701210;28;20056;-60
2022/05/05 02:45:54;;;;;;;331.50;302.95;;;;;;;15.65;66.91;101286.91;15684989;28;20770;-60
2022/05/05 03:01:20;;;;;;;367.27;340.73;;;;;;;15.43;70.45;101300.25;15714389;28;20097;-60
2022/05/05 03:08:53;;;;;;;376.95;348.48;;;;;;;15.38;71.39;101294.03;15708006;28;20463;-58
2022/05/05 03:16:25;;;;;;;;;;;;;;;15.44;70.98;101287.00;15718509;28;20465;-60
2022/05/05 03:23:59;;;;;;;359.17;331.80;;;;;;;15.24;72.56;101300.81;15713034;28;19920;-60
2022/05/05 03:31:34;;;;;;;;;;;;;;;15.12;73.45;101288.75;15722795;28;20477;-59
2022/05/05 03:39:08;;;;;;;325.25;301.25;;;;;;;14.92;73.64;101268.00;15703338;28;19936;-59
2022/05/05 03:46:40;;;;;;;356.10;329.90;;;;;;;14.28;76.48;101266.50;15692570;28;20040;-57
2022/05/05 03:54:14;;;;;;;382.35;356.40;;;;;;;14.15;76.97;101276.84;15719651;28;20060;-59
2022/05/05 04:01:46;;;;;;;;;;;;;;;14.51;76.33;101285.81;15749908;22;20044;-64
2022/05/05 04:09:20;;;;;;;352.27;328.33;;;;;;;14.37;76.15;101291.66;15775591;28;20019;-63
2022/05/05 04:16:52;;;;;;;417.63;389.58;;;;;;;14.44;75.96;101311.59;15704221;28;20568;-64
2022/05/05 04:24:26;;;;;;;392.60;366.20;;;;;;;14.81;74.44;101323.81;15707825;28;20045;-63
2022/05/05 04:31:58;;;;;;;;;;;;;;;14.90;74.29;101354.59;15718667;28;20044;-64
2022/05/05 04:39:42;;;;;;;360.55;336.58;;;;;;;14.85;74.67;101354.84;15725299;28;19927;-64
2022/05/05 04:47:14;;;;;;;350.65;326.88;;;;;;;14.68;74.92;101351.03;15734848;28;20094;-64
2022/05/05 04:54:48;;;;;;;319.75;298.13;;;;;;;14.78;75.29;101355.41;15717140;28;20083;-64
2022/05/05 05:02:20;;;;;;;;;;;;;;;15.11;73.17;101358.22;15733837;28;20140;-63
2022/05/05 05:09:54;;;;;;;341.67;317.88;;;;;;;15.14;73.02;101365.94;15716227;28;20405;-62
2022/05/05 05:17:27;;;;;;;378.40;352.83;;;;;;;15.37;71.37;101382.38;15716278;28;20051;-63
2022/05/05 05:25:01;;;;;;;380.80;352.80;;;;;;;15.24;71.74;101382.34;15716965;28;20066;-63
2022/05/05 05:32:33;;;;;;;406.90;376.50;;;;;;;15.35;71.41;101388.34;15719986;28;20040;-64
2022/05/05 05:40:09;;;;;;;398.77;370.27;;;;;;;15.49;72.34;101400.06;15734818;28;20041;-62
2022/05/05 05:47:41;;;;;;;404.67;370.02;;;;;;;16.04;69.25;101400.69;15693186;28;20527;-64
2022/05/05 05:55:15;;;;;;;373.13;342.73;;;;;;;16.27;68.01;101420.72;15733807;28;20044;-63
2022/05/05 06:10:39;;;;;;;392.83;357.25;;;;;;;17.28;64.68;101443.03;15698005;28;20045;-63
2022/05/05 06:18:11;;;;;;;1999.90;999.90;;;;;;;18.33;60.80;101451.75;15732751;28;20164;-62
2022/05/05 06:25:45;;;;;;;1999.90;999.90;;;;;;;19.60;57.47;101454.88;15715437;28;20066;-62
2022/05/05 06:33:17;;;;;;;1999.90;999.90;;;;;;;20.26;55.13;101464.88;15711812;28;20127;-62
2022/05/05 06:40:51;;;;;;;1999.90;999.90;;;;;;;20.01;56.60;101474.97;15723841;28;20055;-66
2022/05/05 06:48:23;;;;;;;1999.90;999.90;;;;;;;19.57;56.73;101479.06;15713026;28;20642;-65
2022/05/05 06:55:58;;;;;;;1999.90;999.90;;;;;;;19.80;56.18;101490.41;15719672;28;20041;-66
2022/05/05 07:03:30;;;;;;;1999.90;999.90;;;;;;;19.34;56.80;101509.31;15667765;28;20130;-65
2022/05/05 07:11:04;;;;;;;1999.90;999.90;;;;;;;18.88;58.66;101512.00;15743034;28;20051;-65
2022/05/05 07:18:37;;;;;;;1999.90;999.90;;;;;;;19.21;57.01;101511.50;15649243;28;20083;-64
2022/05/05 07:26:10;;;;;;;1999.90;999.90;;;;;;;19.66;56.27;101509.16;15680371;28;20490;-63
2022/05/05 07:33:43;;;;;;;1999.90;999.90;;;;;;;20.40;54.41;101523.78;15668990;28;20044;-64
2022/05/05 07:41:16;;;;;;;1999.90;999.90;;;;;;;21.32;51.71;101524.31;15686826;28;20037;-64
2022/05/05 07:48:49;;;;;;;1999.90;999.90;;;;;;;22.08;50.90;101523.91;15732432;28;20071;-65
2022/05/05 07:56:22;;;;;;;1999.90;999.90;;;;;;;22.63;49.30;101535.31;15675637;28;20072;-65
2022/05/05 08:03:54;;;;;;;1999.90;999.90;;;;;;;23.35;48.00;101540.19;15692486;28;20076;-66
2022/05/05 08:11:28;;;;;;;1999.90;999.90;;;;;;;24.14;45.71;101544.88;15709281;28;20598;-64
2022/05/05 08:19:01;;;;;;;1999.90;999.90;;;;;;;24.88;44.80;101550.94;15713358;28;20140;-63
2022/05/05 08:34:24;;;;;;;1999.90;999.90;;;;;;;24.89;42.54;101541.16;15739365;28;20045;-64
2022/05/05 08:41:58;;;;;;;1999.90;999.90;;;;;;;24.27;43.81;101555.84;15719419;28;20511;-65
2022/05/05 08:49:30;;;;;;;1999.90;999.90;;;;;;;25.20;42.66;101557.38;15716213;28;20053;-65
2022/05/05 08:57:06;;;;;;;1999.90;999.90;;;;;;;26.36;39.51;101564.88;15685989;28;20110;-64
2022/05/05 09:04:44;;;;;;;1999.90;999.90;;;;;;;26.24;38.80;101562.53;15700177;28;20049;-64
2022/05/05 09:12:23;;;;;;;1999.90;999.90;;;;;;;26.96;38.86;101572.09;15697457;28;20502;-64
2022/05/05 09:19:56;;;;;;;1999.90;999.90;;;;;;;26.85;38.90;101580.81;15684775;28;20419;-65
2022/05/05 09:27:31;;;;;;;1999.90;999.90;;;;;;;25.81;38.78;101580.00;15687074;28;20256;-65
2022/05/05 09:35:09;;;;;;;1999.90;999.90;;;;;;;26.49;36.26;101585.25;15690449;28;20134;-65
2022/05/05 09:42:46;;;;;;;1999.90;999.90;;;;;;;27.76;35.16;101594.50;15684043;28;20049;-65
2022/05/05 09:50:22;;;;;;;1999.90;999.90;;;;;;;28.32;33.72;101599.84;15694193;28;20052;-66
2022/05/05 09:57:58;;;;;;;1999.90;999.90;;;;;;;27.66;33.43;101609.00;15694660;28;20048;-65
2022/05/05 10:05:33;;;;;;;1999.90;999.90;;;;;;;28.82;31.69;101611.28;15809633;22;20523;-61
2022/05/05 10:13:07;;;;;;;1999.90;999.90;;;;;;;27.88;33.42;101607.44;15783941;28;20477;-60
2022/05/05 10:20:40;;;;;;;1999.90;999.90;;;;;;;27.47;34.19;101611.25;15770762;28;20037;-62
2022/05/05 10:28:47;;;;;;;1999.90;999.90;;;;;;;27.75;34.12;101600.69;15741554;28;20044;-61
2022/05/05 10:36:23;;;;;;;1999.90;999.90;;;;;;;26.26;36.30;101606.69;15742726;28;20070;-61
2022/05/05 10:44:21;;;;;;;1999.90;999.90;;;;;;;25.79;37.33;101609.00;15744748;28;20044;-61
2022/05/05 10:52:26;;;;;;;1999.90;999.90;;;;;;;27.18;33.87;101618.53;15748313;28;20044;-61
2022/05/05 11:00:09;;;;;;;1999.90;999.90;;;;;;;25.14;36.17;101609.66;15743923;28;20525;-61
2022/05/05 11:07:43;;;;;;;1999.90;999.90;;;;;;;26.65;37.69;101620.66;15748250;28;20055;-61
2022/05/05 11:23:09;;;;;;;1999.90;999.90;;;;;;;24.33;40.20;101614.97;15744530;28;20504;-61
2022/05/05 11:30:44;;;;;;;1999.90;999.90;;;;;;;25.07;37.04;101618.22;15745864;28;20055;-60
2022/05/05 11:38:18;;;;;;;1999.90;999.90;;;;;;;27.33;33.94;101622.88;15745449;28;20049;-61
2022/05/05 11:45:54;;;;;;;1999.90;999.90;;;;;;;25.06;36.30;101633.72;15735989;28;20437;-60
2022/05/05 11:53:29;;;;;;;1999.90;999.90;;;;;;;24.23;36.98;101618.59;15738879;28;20072;-60
2022/05/05 12:09:01;;;;;;;1999.90;999.90;;;;;;;25.63;35.65;101602.91;15733546;28;20493;-59
2022/05/05 12:16:38;;;;;;;1999.90;999.90;;;;;;;25.68;34.17;101610.25;15735468;28;20037;-58
2022/05/05 12:24:14;;;;;;;1999.90;999.90;;;;;;;28.00;30.50;101600.31;15742888;28;20045;-58
2022/05/05 12:31:58;;;;;;;1999.90;999.90;;;;;;;30.36;29.53;101621.25;15742893;28;20119;-60
2022/05/05 12:39:31;;;;;;;1999.90;999.90;;;;;;;27.03;30.78;101612.16;15734704;28;20036;-61
2022/05/05 12:47:05;;;;;;;1999.90;999.90;;;;;;;23.33;35.40;101610.94;15741249;28;20496;-60
2022/05/05 13:02:29;;;;;;;1999.90;999.90;;;;;;;23.86;35.59;101608.38;15740616;28;20059;-60
2022/05/05 13:10:02;;;;;;;1999.90;999.90;;;;;;;26.53;30.86;101603.22;15742220;28;20040;-59
2022/05/05 13:17:36;;;;;;;1999.90;999.90;;;;;;;25.66;33.60;101599.25;15741559;28;20043;-60
2022/05/05 13:25:09;;;;;;;1999.90;999.90;;;;;;;23.81;34.97;101603.03;15741630;28;20132;-61
2022/05/05 13:32:43;;;;;;;1999.90;999.90;;;;;;;23.98;35.88;101606.34;15740917;28;20033;-60
2022/05/05 13:40:15;;;;;;;1999.90;999.90;;;;;;;22.99;34.61;101601.81;15740373;28;20094;-61
2022/05/05 13:47:50;;;;;;;1999.90;999.90;;;;;;;22.80;36.26;101602.88;15740977;28;20123;-61
2022/05/05 13:55:22;;;;;;;1999.90;999.90;;;;;;;22.97;36.67;101604.25;15741694;28;20040;-60
2022/05/05 14:02:56;;;;;;;1999.90;999.90;;;;;;;23.26;37.81;101606.06;15722209;28;20053;-60
2022/05/05 14:18:20;;;;;;;1999.90;999.90;;;;;;;24.04;36.25;101588.44;15802521;28;20044;-60
2022/05/05 14:25:53;;;;;;;1999.90;999.90;;;;;;;23.73;35.29;101590.00;15809899;28;20048;-59
2022/05/05 14:33:27;;;;;;;;;;;;;;;24.84;34.67;101590.91;15801258;28;20074;-59
2022/05/05 14:41:00;;;;;;;1999.90;999.90;;;;;;;23.11;35.66;101590.09;15800509;28;19949;-61
2022/05/05 14:48:33;;;;;;;1999.90;999.90;;;;;;;24.08;36.17;101588.47;15801582;28;20040;-61
2022/05/05 14:56:05;;;;;;;1999.90;999.90;;;;;;;23.47;37.72;101590.28;15755228;28;20490;-59
2022/05/05 15:03:39;;;;;;;1999.90;999.90;;;;;;;23.83;34.44;101592.06;15725460;28;20102;-59
2022/05/05 15:11:12;;;;;;;1999.90;999.90;;;;;;;23.27;33.34;101590.59;15747814;28;20076;-60
2022/05/05 15:18:46;;;;;;;1999.90;999.90;;;;;;;23.32;34.65;101587.34;15794724;28;20128;-59
2022/05/05 15:26:18;;;;;;;1999.90;999.90;;;;;;;22.68;31.49;101586.13;15715816;28;20052;-59
2022/05/05 15:33:53;;;;;;;1999.90;999.90;;;;;;;22.61;31.74;101597.44;15751909;28;20051;-60
2022/05/05 15:41:25;;;;;;;1999.90;999.90;;;;;;;22.23;29.27;101591.06;15745408;28;20090;-60
2022/05/05 15:48:59;;;;;;;1999.90;999.90;;;;;;;22.06;28.79;101588.81;15744485;28;20523;-60
2022/05/05 15:56:38;;;;;;;1999.90;999.90;;;;;;;21.63;30.82;101590.38;15745215;28;20045;-61
2022/05/05 16:04:13;;;;;;;1999.90;999.90;;;;;;;21.51;30.57;101589.44;15764643;22;20052;-76
2022/05/05 16:11:45;;;;;;;1999.90;999.90;;;;;;;21.63;29.63;101593.22;15779565;28;20040;-76
2022/05/05 16:19:19;;;;;;;1999.90;999.90;;;;;;;21.01;30.24;101591.59;15816597;22;20063;-61
2022/05/05 16:34:42;;;;;;;1999.90;999.90;;;;;;;21.37;30.81;101597.78;15774855;28;20054;-61
2022/05/05 16:42:15;;;;;;;1999.90;999.90;;;;;;;21.16;32.58;101597.47;15753795;28;20070;-61
2022/05/05 16:49:49;;;;;;;1999.90;999.90;;;;;;;20.75;32.45;101612.28;15776824;28;20056;-61
2022/05/05 16:57:22;;;;;;;1999.90;999.90;;;;;;;20.65;32.16;101615.75;15747286;28;20056;-61
2022/05/05 17:04:57;;;;;;;1999.90;999.90;;;;;;;20.50;33.00;101613.06;15740122;28;20071;-63
2022/05/05 17:12:29;;;;;;;1999.90;999.90;;;;;;;20.42;33.26;101620.59;15729594;28;20114;-62
2022/05/05 17:20:04;;;;;;;1999.90;999.90;;;;;;;20.35;33.96;101638.31;15775936;28;20075;-62
2022/05/05 17:27:36;;;;;;;1999.90;999.90;;;;;;;19.99;33.41;101648.13;15769886;28;20203;-64
2022/05/05 17:35:10;;;;;;;1999.90;999.90;;;;;;;19.99;33.27;101644.50;15749986;28;20052;-60
2022/05/05 17:42:44;;;;;;;1999.90;999.90;;;;;;;19.73;33.91;101653.69;15752838;28;20054;-62
2022/05/05 17:50:33;;;;;;;1999.90;999.90;;;;;;;19.73;33.52;101656.53;15771665;28;20132;-61
2022/05/05 17:58:06;;;;;;;1999.90;999.90;;;;;;;19.26;34.81;101663.16;15775163;28;20958;-62
2022/05/05 18:05:40;;;;;;;1999.90;999.90;;;;;;;19.30;36.33;101667.72;15771280;28;20059;-61
2022/05/05 18:13:12;;;;;;;1999.90;999.90;;;;;;;19.09;37.76;101666.41;15765051;28;20531;-61
2022/05/05 18:20:46;;;;;;;1999.90;999.90;;;;;;;18.92;38.80;101674.09;15769370;28;20364;-62
2022/05/05 18:28:18;;;;;;;1999.90;999.90;;;;;;;18.58;39.92;101678.47;15773071;28;20378;-63
2022/05/05 18:35:55;;;;;;;1999.90;999.90;;;;;;;18.26;39.99;101679.63;15769088;28;20075;-62
2022/05/05 18:43:28;;;;;;;1999.90;999.90;;;;;;;18.12;40.46;101700.63;15745351;28;20356;-62
2022/05/05 18:51:02;;;;;;;1999.90;999.90;;;;;;;17.86;41.09;101712.41;15783201;28;20048;-61
2022/05/05 18:58:34;;;;;;;1999.90;999.90;;;;;;;17.57;41.87;101729.63;15760472;28;20036;-62
2022/05/05 19:06:08;;;;;;;1999.90;999.90;;;;;;;17.31;43.32;101724.41;15776407;28;20064;-59
2022/05/05 19:13:40;;;;;;;1999.90;999.90;;;;;;;16.97;44.23;101725.69;15762985;28;20048;-59
2022/05/05 19:21:14;;;;;;;1999.90;999.90;;;;;;;16.78;44.51;101739.53;15775721;28;20045;-62
2022/05/05 19:28:46;;;;;;;1999.90;999.90;;;;;;;16.57;45.26;101756.50;15773956;28;20044;-60
2022/05/05 19:36:19;;;;;;;1999.90;999.90;;;;;;;16.36;45.68;101765.00;15763734;28;20056;-61
2022/05/05 19:43:52;;;;;;;1999.90;999.90;;;;;;;16.12;46.35;101765.75;15769426;28;20503;-62
2022/05/05 19:51:26;;;;;;;1999.90;999.90;;;;;;;15.89;46.29;101770.94;15787996;28;20563;-62
2022/05/05 20:14:39;;;;;;;1999.90;999.90;;;;;;;15.65;47.66;101785.69;15776091;28;20168;-61
2022/05/05 20:22:14;;;;;;;1999.90;999.90;;;;;;;15.61;48.53;101798.78;15772005;28;20040;-61
2022/05/05 20:29:50;;;;;;;1999.90;999.90;;;;;;;15.43;48.65;101802.84;15786243;28;20040;-65
2022/05/05 20:37:24;;;;;;;1999.90;999.90;;;;;;;15.37;49.10;101799.38;15781241;28;20140;-58
2022/05/05 20:45:00;;;;;;;1999.90;999.90;;;;;;;15.28;49.93;101805.06;15746727;28;20552;-62
2022/05/05 20:52:34;;;;;;;1999.90;999.90;;;;;;;14.99;50.17;101810.63;15767781;28;20062;-62
2022/05/05 21:00:08;;;;;;;1999.90;999.90;;;;;;;14.97;50.36;101819.41;15750067;28;20102;-59
2022/05/05 21:07:42;;;;;;;1999.90;999.90;;;;;;;14.89;50.49;101828.69;15766352;28;20056;-65
2022/05/05 21:15:14;;;;;;;1999.90;999.90;;;;;;;14.96;50.01;101822.56;15752736;28;20296;-58
2022/05/05 21:30:39;;;;;;;1999.90;999.90;;;;;;;14.71;50.97;101846.78;15785283;28;20409;-61
2022/05/05 21:38:12;;;;;;;;;;;;;;;14.80;50.90;101855.16;15763177;28;20534;-60
2022/05/05 21:45:45;;;;;;;1999.90;999.90;;;;;;;14.60;51.57;101860.34;15760013;28;19927;-61
2022/05/05 21:53:19;;;;;;;1999.90;999.90;;;;;;;14.57;51.76;101858.19;15745415;28;20052;-56
2022/05/05 22:00:54;;;;;;;1999.90;999.90;;;;;;;14.37;52.46;101868.09;15755456;28;20055;-59
2022/05/05 22:08:30;;;;;;;1999.90;999.90;;;;;;;14.45;52.01;101877.69;15763936;28;20402;-60
2022/05/05 22:16:02;;;;;;;1999.90;999.90;;;;;;;14.25;53.11;101869.91;15796010;28;20048;-58
2022/05/05 22:23:36;;;;;;;1999.90;999.90;;;;;;;14.05;53.03;101865.78;15752931;28;20036;-59
2022/05/05 22:31:08;;;;;;;;;;;;;;;14.19;53.18;101860.03;15792610;28;20175;-58
2022/05/05 22:38:42;;;;;;;1999.90;999.90;;;;;;;14.10;53.78;101871.25;15765628;28;19921;-57
2022/05/05 22:46:14;;;;;;;1999.90;999.90;;;;;;;13.94;54.37;101872.84;15785985;28;20076;-61
2022/05/05 22:53:48;;;;;;;1999.90;999.90;;;;;;;13.69;55.14;101864.06;15743488;28;20040;-59
2022/05/05 23:01:25;;;;;;;1999.90;999.90;;;;;;;13.64;55.63;101872.63;15766498;28;20048;-58
2022/05/05 23:08:58;;;;;;;1999.90;999.90;;;;;;;13.49;56.22;101873.91;15788539;28;20047;-61
2022/05/05 23:16:31;;;;;;;;;;;;;;;13.37;56.64;101870.09;15788617;22;20188;-58
2022/05/05 23:24:05;;;;;;;1999.90;999.90;;;;;;;13.29;57.46;101871.69;15741342;28;20328;-57
2022/05/05 23:31:37;;;;;;;1999.90;999.90;;;;;;;13.15;57.52;101885.78;15714889;28;20065;-57
2022/05/05 23:39:11;;;;;;;1999.90;999.90;;;;;;;13.03;58.43;101891.16;15707816;28;20106;-56
2022/05/05 23:46:43;;;;;;;;;;;;;;;12.79;58.94;101896.28;15713766;28;20055;-58
2022/05/05 23:54:17;;;;;;;1999.90;999.90;;;;;;;12.49;59.24;101883.88;15717869;28;19920;-59
